sensor_id;sensor_type;location;lat;lon;timestamp;P1;durP1;ratioP1;P2;durP2;ratioP2
16792;SDS011;8513;42.662;23.350;2023-05-23T00:00:57;6.88;;;5.63;;
16792;SDS011;8513;42.662;23.350;2023-05-23T00:03:26;6.38;;;5.22;;
16792;SDS011;8513;42.662;23.350;2023-05-23T00:05:52;6.50;;;5.65;;
16792;SDS011;8513;42.662;23.350;2023-05-23T00:08:18;5.18;;;4.68;;
16792;SDS011;8513;42.662;23.350;2023-05-23T00:10:44;5.18;;;4.68;;
16792;SDS011;8513;42.662;23.350;2023-05-23T00:13:10;5.45;;;4.70;;
16792;SDS011;8513;42.662;23.350;2023-05-23T00:15:46;6.35;;;5.13;;
16792;SDS011;8513;42.662;23.350;2023-05-23T00:18:12;5.57;;;4.72;;
16792;SDS011;8513;42.662;23.350;2023-05-23T00:20:39;4.60;;;4.13;;
16792;SDS011;8513;42.662;23.350;2023-05-23T00:23:06;6.43;;;4.05;;
16792;SDS011;8513;42.662;23.350;2023-05-23T00:25:34;4.90;;;4.40;;
16792;SDS011;8513;42.662;23.350;2023-05-23T00:28:03;5.00;;;3.85;;
16792;SDS011;8513;42.662;23.350;2023-05-23T00:30:29;5.32;;;3.88;;
16792;SDS011;8513;42.662;23.350;2023-05-23T00:32:56;4.40;;;4.00;;
16792;SDS011;8513;42.662;23.350;2023-05-23T00:35:21;4.75;;;4.28;;
16792;SDS011;8513;42.662;23.350;2023-05-23T00:37:50;4.90;;;4.40;;
16792;SDS011;8513;42.662;23.350;2023-05-23T00:40:18;5.47;;;4.20;;
16792;SDS011;8513;42.662;23.350;2023-05-23T00:42:44;4.25;;;3.85;;
16792;SDS011;8513;42.662;23.350;2023-05-23T00:45:10;4.20;;;3.80;;
16792;SDS011;8513;42.662;23.350;2023-05-23T00:47:36;4.88;;;3.70;;
16792;SDS011;8513;42.662;23.350;2023-05-23T00:50:04;6.30;;;3.88;;
16792;SDS011;8513;42.662;23.350;2023-05-23T00:52:32;4.47;;;3.88;;
16792;SDS011;8513;42.662;23.350;2023-05-23T00:54:57;5.00;;;3.67;;
16792;SDS011;8513;42.662;23.350;2023-05-23T00:57:23;4.13;;;3.72;;
16792;SDS011;8513;42.662;23.350;2023-05-23T00:59:48;4.65;;;3.90;;
16792;SDS011;8513;42.662;23.350;2023-05-23T01:02:13;5.00;;;4.50;;
16792;SDS011;8513;42.662;23.350;2023-05-23T01:04:39;4.90;;;4.40;;
16792;SDS011;8513;42.662;23.350;2023-05-23T01:07:05;5.13;;;4.28;;
16792;SDS011;8513;42.662;23.350;2023-05-23T01:09:31;5.15;;;3.90;;
16792;SDS011;8513;42.662;23.350;2023-05-23T01:14:46;4.38;;;3.97;;
16792;SDS011;8513;42.662;23.350;2023-05-23T01:20:12;5.57;;;4.32;;
16792;SDS011;8513;42.662;23.350;2023-05-23T01:25:31;5.55;;;4.95;;
16792;SDS011;8513;42.662;23.350;2023-05-23T01:28:22;5.18;;;4.68;;
16792;SDS011;8513;42.662;23.350;2023-05-23T01:30:53;5.28;;;4.45;;
16792;SDS011;8513;42.662;23.350;2023-05-23T01:33:22;4.50;;;4.10;;
16792;SDS011;8513;42.662;23.350;2023-05-23T01:35:49;4.93;;;4.07;;
16792;SDS011;8513;42.662;23.350;2023-05-23T01:38:16;4.00;;;3.60;;
16792;SDS011;8513;42.662;23.350;2023-05-23T01:40:41;4.50;;;4.00;;
16792;SDS011;8513;42.662;23.350;2023-05-23T01:43:07;4.72;;;4.25;;
16792;SDS011;8513;42.662;23.350;2023-05-23T01:45:33;4.88;;;4.07;;
16792;SDS011;8513;42.662;23.350;2023-05-23T01:47:58;4.60;;;4.10;;
16792;SDS011;8513;42.662;23.350;2023-05-23T01:50:25;4.43;;;4.03;;
16792;SDS011;8513;42.662;23.350;2023-05-23T01:52:51;4.72;;;4.00;;
16792;SDS011;8513;42.662;23.350;2023-05-23T01:55:18;5.00;;;4.10;;
16792;SDS011;8513;42.662;23.350;2023-05-23T01:57:50;5.00;;;4.10;;
16792;SDS011;8513;42.662;23.350;2023-05-23T02:00:17;5.10;;;4.07;;
16792;SDS011;8513;42.662;23.350;2023-05-23T02:02:43;6.95;;;4.28;;
16792;SDS011;8513;42.662;23.350;2023-05-23T02:05:09;4.40;;;4.00;;
16792;SDS011;8513;42.662;23.350;2023-05-23T02:07:35;4.15;;;3.60;;
16792;SDS011;8513;42.662;23.350;2023-05-23T02:10:01;4.45;;;3.80;;
16792;SDS011;8513;42.662;23.350;2023-05-23T02:12:28;4.30;;;3.83;;
16792;SDS011;8513;42.662;23.350;2023-05-23T02:14:53;4.85;;;4.15;;
16792;SDS011;8513;42.662;23.350;2023-05-23T02:17:19;4.32;;;3.92;;
16792;SDS011;8513;42.662;23.350;2023-05-23T02:19:48;4.03;;;3.60;;
16792;SDS011;8513;42.662;23.350;2023-05-23T02:22:13;5.93;;;4.35;;
16792;SDS011;8513;42.662;23.350;2023-05-23T02:24:39;3.83;;;3.47;;
16792;SDS011;8513;42.662;23.350;2023-05-23T02:27:04;5.40;;;3.58;;
16792;SDS011;8513;42.662;23.350;2023-05-23T02:29:30;4.07;;;3.47;;
16792;SDS011;8513;42.662;23.350;2023-05-23T02:31:56;4.72;;;3.88;;
16792;SDS011;8513;42.662;23.350;2023-05-23T02:34:21;6.07;;;5.15;;
16792;SDS011;8513;42.662;23.350;2023-05-23T02:36:47;8.18;;;6.00;;
16792;SDS011;8513;42.662;23.350;2023-05-23T02:39:12;8.43;;;6.40;;
16792;SDS011;8513;42.662;23.350;2023-05-23T02:41:38;7.85;;;6.15;;
16792;SDS011;8513;42.662;23.350;2023-05-23T02:44:03;8.25;;;6.38;;
16792;SDS011;8513;42.662;23.350;2023-05-23T02:46:29;8.93;;;6.43;;
16792;SDS011;8513;42.662;23.350;2023-05-23T02:48:55;7.72;;;6.13;;
16792;SDS011;8513;42.662;23.350;2023-05-23T02:51:20;7.13;;;5.78;;
16792;SDS011;8513;42.662;23.350;2023-05-23T02:53:45;7.65;;;6.13;;
16792;SDS011;8513;42.662;23.350;2023-05-23T02:56:11;8.43;;;6.38;;
16792;SDS011;8513;42.662;23.350;2023-05-23T02:58:37;7.63;;;6.07;;
16792;SDS011;8513;42.662;23.350;2023-05-23T03:01:04;7.70;;;6.53;;
16792;SDS011;8513;42.662;23.350;2023-05-23T03:03:30;8.60;;;6.97;;
16792;SDS011;8513;42.662;23.350;2023-05-23T03:05:59;9.02;;;6.28;;
16792;SDS011;8513;42.662;23.350;2023-05-23T03:08:26;10.30;;;7.78;;
16792;SDS011;8513;42.662;23.350;2023-05-23T03:10:51;9.82;;;6.47;;
16792;SDS011;8513;42.662;23.350;2023-05-23T03:13:17;10.38;;;7.50;;
16792;SDS011;8513;42.662;23.350;2023-05-23T03:15:42;10.15;;;7.63;;
16792;SDS011;8513;42.662;23.350;2023-05-23T03:18:08;9.73;;;7.55;;
16792;SDS011;8513;42.662;23.350;2023-05-23T03:20:33;11.45;;;6.85;;
16792;SDS011;8513;42.662;23.350;2023-05-23T03:22:59;10.20;;;8.00;;
16792;SDS011;8513;42.662;23.350;2023-05-23T03:25:24;10.40;;;7.18;;
16792;SDS011;8513;42.662;23.350;2023-05-23T03:27:50;8.90;;;7.43;;
16792;SDS011;8513;42.662;23.350;2023-05-23T03:30:15;9.57;;;7.57;;
16792;SDS011;8513;42.662;23.350;2023-05-23T03:32:41;9.90;;;7.72;;
16792;SDS011;8513;42.662;23.350;2023-05-23T03:35:06;7.70;;;6.90;;
16792;SDS011;8513;42.662;23.350;2023-05-23T03:37:32;8.67;;;7.43;;
16792;SDS011;8513;42.662;23.350;2023-05-23T03:39:58;9.40;;;7.13;;
16792;SDS011;8513;42.662;23.350;2023-05-23T03:42:23;10.10;;;7.15;;
16792;SDS011;8513;42.662;23.350;2023-05-23T03:44:49;12.03;;;8.33;;
16792;SDS011;8513;42.662;23.350;2023-05-23T03:47:14;9.82;;;7.07;;
16792;SDS011;8513;42.662;23.350;2023-05-23T03:49:39;11.20;;;8.00;;
16792;SDS011;8513;42.662;23.350;2023-05-23T03:52:05;10.88;;;7.97;;
16792;SDS011;8513;42.662;23.350;2023-05-23T03:54:31;10.48;;;7.95;;
16792;SDS011;8513;42.662;23.350;2023-05-23T03:56:56;10.65;;;7.10;;
16792;SDS011;8513;42.662;23.350;2023-05-23T03:59:21;9.00;;;7.25;;
16792;SDS011;8513;42.662;23.350;2023-05-23T04:01:47;9.90;;;7.88;;
16792;SDS011;8513;42.662;23.350;2023-05-23T04:04:12;8.98;;;6.55;;
16792;SDS011;8513;42.662;23.350;2023-05-23T04:06:38;10.80;;;7.70;;
16792;SDS011;8513;42.662;23.350;2023-05-23T04:09:03;9.15;;;6.35;;
16792;SDS011;8513;42.662;23.350;2023-05-23T04:11:30;10.75;;;8.02;;
16792;SDS011;8513;42.662;23.350;2023-05-23T04:13:56;9.15;;;6.93;;
16792;SDS011;8513;42.662;23.350;2023-05-23T04:16:22;10.05;;;8.57;;
16792;SDS011;8513;42.662;23.350;2023-05-23T04:18:48;10.23;;;7.85;;
16792;SDS011;8513;42.662;23.350;2023-05-23T04:21:14;8.65;;;6.78;;
16792;SDS011;8513;42.662;23.350;2023-05-23T04:23:39;8.90;;;7.15;;
16792;SDS011;8513;42.662;23.350;2023-05-23T04:26:05;10.70;;;7.72;;
16792;SDS011;8513;42.662;23.350;2023-05-23T04:28:30;11.40;;;8.43;;
16792;SDS011;8513;42.662;23.350;2023-05-23T04:30:56;10.85;;;8.38;;
16792;SDS011;8513;42.662;23.350;2023-05-23T04:33:22;11.23;;;8.60;;
16792;SDS011;8513;42.662;23.350;2023-05-23T04:35:48;12.63;;;9.15;;
16792;SDS011;8513;42.662;23.350;2023-05-23T04:38:13;14.35;;;10.05;;
16792;SDS011;8513;42.662;23.350;2023-05-23T04:40:39;14.57;;;9.27;;
16792;SDS011;8513;42.662;23.350;2023-05-23T04:43:04;12.35;;;8.95;;
16792;SDS011;8513;42.662;23.350;2023-05-23T04:45:29;7.93;;;5.82;;
16792;SDS011;8513;42.662;23.350;2023-05-23T04:47:55;5.30;;;4.75;;
16792;SDS011;8513;42.662;23.350;2023-05-23T04:50:21;5.03;;;4.38;;
16792;SDS011;8513;42.662;23.350;2023-05-23T04:52:47;7.20;;;4.57;;
16792;SDS011;8513;42.662;23.350;2023-05-23T04:55:13;6.13;;;4.55;;
16792;SDS011;8513;42.662;23.350;2023-05-23T04:57:38;7.10;;;5.20;;
16792;SDS011;8513;42.662;23.350;2023-05-23T05:00:04;6.63;;;4.63;;
16792;SDS011;8513;42.662;23.350;2023-05-23T05:02:37;7.00;;;5.15;;
16792;SDS011;8513;42.662;23.350;2023-05-23T05:05:03;4.95;;;4.00;;
16792;SDS011;8513;42.662;23.350;2023-05-23T05:07:29;6.60;;;4.28;;
16792;SDS011;8513;42.662;23.350;2023-05-23T05:09:54;7.55;;;4.95;;
16792;SDS011;8513;42.662;23.350;2023-05-23T05:12:20;6.10;;;5.40;;
16792;SDS011;8513;42.662;23.350;2023-05-23T05:14:46;8.23;;;5.78;;
16792;SDS011;8513;42.662;23.350;2023-05-23T05:17:11;8.88;;;6.07;;
16792;SDS011;8513;42.662;23.350;2023-05-23T05:19:37;8.48;;;7.07;;
16792;SDS011;8513;42.662;23.350;2023-05-23T05:22:02;10.50;;;7.03;;
16792;SDS011;8513;42.662;23.350;2023-05-23T05:24:28;10.60;;;6.90;;
16792;SDS011;8513;42.662;23.350;2023-05-23T05:26:54;8.43;;;7.10;;
16792;SDS011;8513;42.662;23.350;2023-05-23T05:29:20;9.82;;;6.65;;
16792;SDS011;8513;42.662;23.350;2023-05-23T05:31:45;9.40;;;6.88;;
16792;SDS011;8513;42.662;23.350;2023-05-23T05:34:11;11.00;;;7.75;;
16792;SDS011;8513;42.662;23.350;2023-05-23T05:36:37;10.18;;;7.75;;
16792;SDS011;8513;42.662;23.350;2023-05-23T05:39:09;9.43;;;7.03;;
16792;SDS011;8513;42.662;23.350;2023-05-23T05:41:35;10.60;;;7.65;;
16792;SDS011;8513;42.662;23.350;2023-05-23T05:44:00;10.13;;;7.55;;
16792;SDS011;8513;42.662;23.350;2023-05-23T05:46:26;9.25;;;7.75;;
16792;SDS011;8513;42.662;23.350;2023-05-23T05:48:51;11.60;;;7.90;;
16792;SDS011;8513;42.662;23.350;2023-05-23T05:51:17;11.70;;;8.05;;
16792;SDS011;8513;42.662;23.350;2023-05-23T05:53:42;10.20;;;8.30;;
16792;SDS011;8513;42.662;23.350;2023-05-23T05:56:07;10.38;;;8.10;;
16792;SDS011;8513;42.662;23.350;2023-05-23T05:58:33;11.20;;;8.35;;
16792;SDS011;8513;42.662;23.350;2023-05-23T06:00:58;11.10;;;8.85;;
16792;SDS011;8513;42.662;23.350;2023-05-23T06:03:24;10.88;;;8.23;;
16792;SDS011;8513;42.662;23.350;2023-05-23T06:05:51;12.68;;;9.18;;
16792;SDS011;8513;42.662;23.350;2023-05-23T06:08:16;10.90;;;8.88;;
16792;SDS011;8513;42.662;23.350;2023-05-23T06:10:42;12.57;;;8.93;;
16792;SDS011;8513;42.662;23.350;2023-05-23T06:13:07;11.57;;;8.77;;
16792;SDS011;8513;42.662;23.350;2023-05-23T06:15:33;12.57;;;9.27;;
16792;SDS011;8513;42.662;23.350;2023-05-23T06:17:58;12.98;;;10.25;;
16792;SDS011;8513;42.662;23.350;2023-05-23T06:20:23;12.32;;;8.98;;
16792;SDS011;8513;42.662;23.350;2023-05-23T06:22:49;13.07;;;8.80;;
16792;SDS011;8513;42.662;23.350;2023-05-23T06:25:14;13.73;;;8.60;;
16792;SDS011;8513;42.662;23.350;2023-05-23T06:27:40;12.82;;;9.73;;
16792;SDS011;8513;42.662;23.350;2023-05-23T06:30:05;13.00;;;9.55;;
16792;SDS011;8513;42.662;23.350;2023-05-23T06:32:31;12.73;;;10.05;;
16792;SDS011;8513;42.662;23.350;2023-05-23T06:34:57;14.00;;;10.00;;
16792;SDS011;8513;42.662;23.350;2023-05-23T06:37:22;12.27;;;9.73;;
16792;SDS011;8513;42.662;23.350;2023-05-23T06:39:49;12.63;;;9.80;;
16792;SDS011;8513;42.662;23.350;2023-05-23T06:42:14;11.70;;;9.50;;
16792;SDS011;8513;42.662;23.350;2023-05-23T06:44:40;11.73;;;9.48;;
16792;SDS011;8513;42.662;23.350;2023-05-23T06:47:05;12.23;;;9.68;;
16792;SDS011;8513;42.662;23.350;2023-05-23T06:49:31;11.73;;;8.85;;
16792;SDS011;8513;42.662;23.350;2023-05-23T06:51:56;10.38;;;8.57;;
16792;SDS011;8513;42.662;23.350;2023-05-23T06:54:22;12.55;;;8.80;;
16792;SDS011;8513;42.662;23.350;2023-05-23T06:56:47;11.02;;;8.73;;
16792;SDS011;8513;42.662;23.350;2023-05-23T06:59:13;9.77;;;7.85;;
16792;SDS011;8513;42.662;23.350;2023-05-23T07:01:38;14.43;;;8.82;;
16792;SDS011;8513;42.662;23.350;2023-05-23T07:04:03;10.18;;;8.32;;
16792;SDS011;8513;42.662;23.350;2023-05-23T07:06:29;9.48;;;7.70;;
16792;SDS011;8513;42.662;23.350;2023-05-23T07:08:55;13.90;;;10.50;;
16792;SDS011;8513;42.662;23.350;2023-05-23T07:11:20;10.50;;;8.32;;
16792;SDS011;8513;42.662;23.350;2023-05-23T07:13:46;10.77;;;9.00;;
16792;SDS011;8513;42.662;23.350;2023-05-23T07:16:12;10.30;;;8.35;;
16792;SDS011;8513;42.662;23.350;2023-05-23T07:18:37;13.15;;;9.80;;
16792;SDS011;8513;42.662;23.350;2023-05-23T07:21:03;12.27;;;9.40;;
16792;SDS011;8513;42.662;23.350;2023-05-23T07:23:31;10.80;;;8.68;;
16792;SDS011;8513;42.662;23.350;2023-05-23T07:25:57;12.85;;;10.30;;
16792;SDS011;8513;42.662;23.350;2023-05-23T07:28:23;14.15;;;9.48;;
16792;SDS011;8513;42.662;23.350;2023-05-23T07:30:48;12.63;;;10.27;;
16792;SDS011;8513;42.662;23.350;2023-05-23T07:33:13;12.27;;;9.07;;
16792;SDS011;8513;42.662;23.350;2023-05-23T07:35:39;12.43;;;10.50;;
16792;SDS011;8513;42.662;23.350;2023-05-23T07:38:04;11.73;;;8.40;;
16792;SDS011;8513;42.662;23.350;2023-05-23T07:40:30;11.13;;;9.23;;
16792;SDS011;8513;42.662;23.350;2023-05-23T07:42:55;11.80;;;9.45;;
16792;SDS011;8513;42.662;23.350;2023-05-23T07:45:21;11.55;;;9.68;;
16792;SDS011;8513;42.662;23.350;2023-05-23T07:47:47;13.88;;;9.88;;
16792;SDS011;8513;42.662;23.350;2023-05-23T07:50:13;13.98;;;10.18;;
16792;SDS011;8513;42.662;23.350;2023-05-23T07:52:38;12.77;;;9.98;;
16792;SDS011;8513;42.662;23.350;2023-05-23T07:55:05;14.32;;;10.35;;
16792;SDS011;8513;42.662;23.350;2023-05-23T07:57:31;10.25;;;8.75;;
16792;SDS011;8513;42.662;23.350;2023-05-23T07:59:56;12.40;;;9.35;;
16792;SDS011;8513;42.662;23.350;2023-05-23T08:02:22;12.15;;;9.95;;
16792;SDS011;8513;42.662;23.350;2023-05-23T08:04:47;12.48;;;9.25;;
16792;SDS011;8513;42.662;23.350;2023-05-23T08:07:13;10.10;;;9.02;;
16792;SDS011;8513;42.662;23.350;2023-05-23T08:09:39;11.50;;;8.77;;
16792;SDS011;8513;42.662;23.350;2023-05-23T08:12:05;9.93;;;7.85;;
16792;SDS011;8513;42.662;23.350;2023-05-23T08:14:31;11.15;;;9.25;;
16792;SDS011;8513;42.662;23.350;2023-05-23T08:16:56;11.30;;;9.05;;
16792;SDS011;8513;42.662;23.350;2023-05-23T08:19:22;9.43;;;8.43;;
16792;SDS011;8513;42.662;23.350;2023-05-23T08:21:47;8.43;;;7.43;;
16792;SDS011;8513;42.662;23.350;2023-05-23T08:24:13;9.90;;;7.68;;
16792;SDS011;8513;42.662;23.350;2023-05-23T08:26:38;9.63;;;7.85;;
16792;SDS011;8513;42.662;23.350;2023-05-23T08:29:04;7.65;;;6.90;;
16792;SDS011;8513;42.662;23.350;2023-05-23T08:31:30;7.53;;;6.72;;
16792;SDS011;8513;42.662;23.350;2023-05-23T08:33:56;8.52;;;6.20;;
16792;SDS011;8513;42.662;23.350;2023-05-23T08:36:23;6.88;;;5.93;;
16792;SDS011;8513;42.662;23.350;2023-05-23T08:38:48;8.43;;;6.10;;
16792;SDS011;8513;42.662;23.350;2023-05-23T08:41:19;6.60;;;6.00;;
16792;SDS011;8513;42.662;23.350;2023-05-23T08:43:46;5.93;;;5.32;;
16792;SDS011;8513;42.662;23.350;2023-05-23T08:46:12;7.18;;;6.47;;
16792;SDS011;8513;42.662;23.350;2023-05-23T08:48:38;7.55;;;6.22;;
16792;SDS011;8513;42.662;23.350;2023-05-23T08:51:06;6.85;;;6.15;;
16792;SDS011;8513;42.662;23.350;2023-05-23T08:53:38;6.10;;;5.50;;
16792;SDS011;8513;42.662;23.350;2023-05-23T08:56:07;6.93;;;6.13;;
16792;SDS011;8513;42.662;23.350;2023-05-23T08:58:33;8.68;;;6.75;;
16792;SDS011;8513;42.662;23.350;2023-05-23T09:00:59;8.00;;;7.20;;
16792;SDS011;8513;42.662;23.350;2023-05-23T09:03:25;8.10;;;6.45;;
16792;SDS011;8513;42.662;23.350;2023-05-23T09:05:54;6.55;;;5.88;;
16792;SDS011;8513;42.662;23.350;2023-05-23T09:08:21;5.35;;;4.85;;
16792;SDS011;8513;42.662;23.350;2023-05-23T09:10:48;8.35;;;6.35;;
16792;SDS011;8513;42.662;23.350;2023-05-23T09:13:14;7.63;;;6.20;;
16792;SDS011;8513;42.662;23.350;2023-05-23T09:18:39;8.23;;;5.47;;
16792;SDS011;8513;42.662;23.350;2023-05-23T09:21:09;6.22;;;5.53;;
16792;SDS011;8513;42.662;23.350;2023-05-23T09:23:37;4.18;;;3.78;;
16792;SDS011;8513;42.662;23.350;2023-05-23T09:26:05;4.35;;;3.92;;
16792;SDS011;8513;42.662;23.350;2023-05-23T09:28:33;4.60;;;3.80;;
16792;SDS011;8513;42.662;23.350;2023-05-23T09:31:02;3.63;;;3.20;;
16792;SDS011;8513;42.662;23.350;2023-05-23T09:33:46;5.38;;;3.03;;
16792;SDS011;8513;42.662;23.350;2023-05-23T09:36:14;4.85;;;3.00;;
16792;SDS011;8513;42.662;23.350;2023-05-23T09:38:46;2.97;;;2.78;;
16792;SDS011;8513;42.662;23.350;2023-05-23T09:41:12;3.33;;;2.72;;
16792;SDS011;8513;42.662;23.350;2023-05-23T09:43:38;2.58;;;2.38;;
16792;SDS011;8513;42.662;23.350;2023-05-23T09:46:11;3.28;;;2.45;;
16792;SDS011;8513;42.662;23.350;2023-05-23T09:48:37;3.28;;;2.20;;
16792;SDS011;8513;42.662;23.350;2023-05-23T09:51:03;2.28;;;2.08;;
16792;SDS011;8513;42.662;23.350;2023-05-23T09:53:30;2.97;;;2.45;;
16792;SDS011;8513;42.662;23.350;2023-05-23T09:55:55;3.13;;;2.30;;
16792;SDS011;8513;42.662;23.350;2023-05-23T09:58:23;2.40;;;2.20;;
16792;SDS011;8513;42.662;23.350;2023-05-23T10:00:51;2.58;;;2.38;;
16792;SDS011;8513;42.662;23.350;2023-05-23T10:03:19;2.33;;;2.13;;
16792;SDS011;8513;42.662;23.350;2023-05-23T10:05:52;2.55;;;2.35;;
16792;SDS011;8513;42.662;23.350;2023-05-23T10:08:24;4.85;;;2.70;;
16792;SDS011;8513;42.662;23.350;2023-05-23T10:13:20;2.75;;;2.50;;
16792;SDS011;8513;42.662;23.350;2023-05-23T10:15:52;2.90;;;2.53;;
16792;SDS011;8513;42.662;23.350;2023-05-23T10:18:38;2.47;;;2.17;;
16792;SDS011;8513;42.662;23.350;2023-05-23T10:21:11;3.08;;;2.20;;
16792;SDS011;8513;42.662;23.350;2023-05-23T10:23:57;2.97;;;2.63;;
16792;SDS011;8513;42.662;23.350;2023-05-23T10:26:23;2.58;;;2.30;;
16792;SDS011;8513;42.662;23.350;2023-05-23T10:28:50;2.40;;;2.20;;
16792;SDS011;8513;42.662;23.350;2023-05-23T10:31:17;3.58;;;2.50;;
16792;SDS011;8513;42.662;23.350;2023-05-23T10:33:45;2.60;;;2.35;;
16792;SDS011;8513;42.662;23.350;2023-05-23T10:36:24;2.35;;;2.13;;
16792;SDS011;8513;42.662;23.350;2023-05-23T10:42:16;2.50;;;2.30;;
16792;SDS011;8513;42.662;23.350;2023-05-23T10:44:48;2.53;;;2.33;;
16792;SDS011;8513;42.662;23.350;2023-05-23T10:47:24;2.10;;;2.00;;
16792;SDS011;8513;42.662;23.350;2023-05-23T10:49:51;2.50;;;2.30;;
16792;SDS011;8513;42.662;23.350;2023-05-23T10:52:18;3.05;;;2.45;;
16792;SDS011;8513;42.662;23.350;2023-05-23T10:54:49;3.50;;;2.28;;
16792;SDS011;8513;42.662;23.350;2023-05-23T10:57:19;2.30;;;2.10;;
16792;SDS011;8513;42.662;23.350;2023-05-23T10:59:48;3.38;;;2.45;;
16792;SDS011;8513;42.662;23.350;2023-05-23T11:02:18;2.13;;;1.92;;
16792;SDS011;8513;42.662;23.350;2023-05-23T11:07:39;2.42;;;1.90;;
16792;SDS011;8513;42.662;23.350;2023-05-23T11:12:36;2.03;;;1.83;;
16792;SDS011;8513;42.662;23.350;2023-05-23T11:17:47;1.77;;;1.67;;
16792;SDS011;8513;42.662;23.350;2023-05-23T11:20:25;2.20;;;2.00;;
16792;SDS011;8513;42.662;23.350;2023-05-23T11:22:59;3.42;;;3.13;;
16792;SDS011;8513;42.662;23.350;2023-05-23T11:25:40;2.40;;;2.20;;
16792;SDS011;8513;42.662;23.350;2023-05-23T11:28:10;2.30;;;2.10;;
16792;SDS011;8513;42.662;23.350;2023-05-23T11:30:37;2.22;;;2.03;;
16792;SDS011;8513;42.662;23.350;2023-05-23T11:33:06;2.92;;;2.15;;
16792;SDS011;8513;42.662;23.350;2023-05-23T11:35:41;2.38;;;2.10;;
16792;SDS011;8513;42.662;23.350;2023-05-23T11:38:08;2.53;;;1.90;;
16792;SDS011;8513;42.662;23.350;2023-05-23T11:43:05;3.05;;;2.20;;
16792;SDS011;8513;42.662;23.350;2023-05-23T11:45:41;2.42;;;2.22;;
16792;SDS011;8513;42.662;23.350;2023-05-23T11:48:11;2.13;;;1.98;;
16792;SDS011;8513;42.662;23.350;2023-05-23T11:50:48;2.58;;;2.15;;
16792;SDS011;8513;42.662;23.350;2023-05-23T11:53:15;1.90;;;1.70;;
16792;SDS011;8513;42.662;23.350;2023-05-23T11:55:56;2.22;;;2.03;;
16792;SDS011;8513;42.662;23.350;2023-05-23T11:58:33;2.92;;;2.25;;
16792;SDS011;8513;42.662;23.350;2023-05-23T12:01:05;3.22;;;2.13;;
16792;SDS011;8513;42.662;23.350;2023-05-23T12:03:32;2.20;;;2.00;;
16792;SDS011;8513;42.662;23.350;2023-05-23T12:06:19;2.15;;;1.98;;
16792;SDS011;8513;42.662;23.350;2023-05-23T12:08:49;2.50;;;2.20;;
16792;SDS011;8513;42.662;23.350;2023-05-23T12:11:16;2.45;;;2.25;;
16792;SDS011;8513;42.662;23.350;2023-05-23T12:13:41;2.83;;;2.20;;
16792;SDS011;8513;42.662;23.350;2023-05-23T12:16:07;1.63;;;1.52;;
16792;SDS011;8513;42.662;23.350;2023-05-23T12:18:33;2.63;;;2.30;;
16792;SDS011;8513;42.662;23.350;2023-05-23T12:21:03;2.55;;;2.33;;
16792;SDS011;8513;42.662;23.350;2023-05-23T12:23:31;2.15;;;2.05;;
16792;SDS011;8513;42.662;23.350;2023-05-23T12:25:58;2.33;;;2.15;;
16792;SDS011;8513;42.662;23.350;2023-05-23T12:28:39;2.92;;;2.30;;
16792;SDS011;8513;42.662;23.350;2023-05-23T12:33:41;2.13;;;2.03;;
16792;SDS011;8513;42.662;23.350;2023-05-23T12:36:23;2.17;;;2.03;;
16792;SDS011;8513;42.662;23.350;2023-05-23T12:38:50;2.28;;;2.08;;
16792;SDS011;8513;42.662;23.350;2023-05-23T12:41:16;2.85;;;2.28;;
16792;SDS011;8513;42.662;23.350;2023-05-23T12:43:49;2.92;;;2.20;;
16792;SDS011;8513;42.662;23.350;2023-05-23T12:46:16;2.35;;;2.10;;
16792;SDS011;8513;42.662;23.350;2023-05-23T12:48:41;1.80;;;1.70;;
16792;SDS011;8513;42.662;23.350;2023-05-23T12:51:07;2.30;;;2.10;;
16792;SDS011;8513;42.662;23.350;2023-05-23T12:53:32;2.00;;;1.90;;
16792;SDS011;8513;42.662;23.350;2023-05-23T12:55:57;2.47;;;2.00;;
16792;SDS011;8513;42.662;23.350;2023-05-23T12:58:23;2.38;;;2.13;;
16792;SDS011;8513;42.662;23.350;2023-05-23T13:00:49;2.65;;;2.45;;
16792;SDS011;8513;42.662;23.350;2023-05-23T13:03:14;2.20;;;2.00;;
16792;SDS011;8513;42.662;23.350;2023-05-23T13:05:40;2.55;;;2.13;;
16792;SDS011;8513;42.662;23.350;2023-05-23T13:08:06;2.53;;;1.88;;
16792;SDS011;8513;42.662;23.350;2023-05-23T13:10:32;2.22;;;2.03;;
16792;SDS011;8513;42.662;23.350;2023-05-23T13:12:58;2.10;;;1.90;;
16792;SDS011;8513;42.662;23.350;2023-05-23T13:15:23;2.28;;;2.08;;
16792;SDS011;8513;42.662;23.350;2023-05-23T13:17:48;2.45;;;2.03;;
16792;SDS011;8513;42.662;23.350;2023-05-23T13:20:14;1.80;;;1.70;;
16792;SDS011;8513;42.662;23.350;2023-05-23T13:22:39;2.20;;;2.00;;
16792;SDS011;8513;42.662;23.350;2023-05-23T13:25:06;3.58;;;1.63;;
16792;SDS011;8513;42.662;23.350;2023-05-23T13:27:32;3.03;;;2.15;;
16792;SDS011;8513;42.662;23.350;2023-05-23T13:29:58;2.67;;;2.30;;
16792;SDS011;8513;42.662;23.350;2023-05-23T13:32:24;2.22;;;2.08;;
16792;SDS011;8513;42.662;23.350;2023-05-23T13:34:49;2.10;;;1.90;;
16792;SDS011;8513;42.662;23.350;2023-05-23T13:37:15;2.42;;;2.22;;
16792;SDS011;8513;42.662;23.350;2023-05-23T13:39:40;2.50;;;2.30;;
16792;SDS011;8513;42.662;23.350;2023-05-23T13:42:06;1.98;;;1.80;;
16792;SDS011;8513;42.662;23.350;2023-05-23T13:44:32;2.10;;;1.90;;
16792;SDS011;8513;42.662;23.350;2023-05-23T13:47:05;2.72;;;2.20;;
16792;SDS011;8513;42.662;23.350;2023-05-23T13:49:34;1.73;;;1.63;;
16792;SDS011;8513;42.662;23.350;2023-05-23T13:51:59;1.88;;;1.70;;
16792;SDS011;8513;42.662;23.350;2023-05-23T13:54:25;3.15;;;1.92;;
16792;SDS011;8513;42.662;23.350;2023-05-23T13:56:50;2.80;;;2.10;;
16792;SDS011;8513;42.662;23.350;2023-05-23T13:59:16;2.25;;;2.05;;
16792;SDS011;8513;42.662;23.350;2023-05-23T14:01:45;1.90;;;1.70;;
16792;SDS011;8513;42.662;23.350;2023-05-23T14:04:13;1.80;;;1.70;;
16792;SDS011;8513;42.662;23.350;2023-05-23T14:06:38;2.20;;;2.10;;
16792;SDS011;8513;42.662;23.350;2023-05-23T14:09:04;1.98;;;1.88;;
16792;SDS011;8513;42.662;23.350;2023-05-23T14:11:30;2.08;;;1.88;;
16792;SDS011;8513;42.662;23.350;2023-05-23T14:13:55;2.90;;;2.35;;
16792;SDS011;8513;42.662;23.350;2023-05-23T14:16:21;1.83;;;1.73;;
16792;SDS011;8513;42.662;23.350;2023-05-23T14:18:46;2.00;;;1.60;;
16792;SDS011;8513;42.662;23.350;2023-05-23T14:21:12;2.78;;;1.85;;
16792;SDS011;8513;42.662;23.350;2023-05-23T14:23:37;2.30;;;2.10;;
16792;SDS011;8513;42.662;23.350;2023-05-23T14:26:03;2.00;;;1.90;;
16792;SDS011;8513;42.662;23.350;2023-05-23T14:28:28;3.28;;;2.30;;
16792;SDS011;8513;42.662;23.350;2023-05-23T14:30:54;2.30;;;2.10;;
16792;SDS011;8513;42.662;23.350;2023-05-23T14:33:20;2.75;;;2.42;;
16792;SDS011;8513;42.662;23.350;2023-05-23T14:35:45;2.60;;;2.40;;
16792;SDS011;8513;42.662;23.350;2023-05-23T14:38:11;3.33;;;2.47;;
16792;SDS011;8513;42.662;23.350;2023-05-23T14:40:37;2.65;;;2.45;;
16792;SDS011;8513;42.662;23.350;2023-05-23T14:43:02;2.90;;;2.60;;
16792;SDS011;8513;42.662;23.350;2023-05-23T14:45:29;2.90;;;2.70;;
16792;SDS011;8513;42.662;23.350;2023-05-23T14:47:54;2.90;;;2.70;;
16792;SDS011;8513;42.662;23.350;2023-05-23T14:50:20;3.30;;;3.10;;
16792;SDS011;8513;42.662;23.350;2023-05-23T14:52:45;3.40;;;3.20;;
16792;SDS011;8513;42.662;23.350;2023-05-23T14:55:11;4.13;;;3.30;;
16792;SDS011;8513;42.662;23.350;2023-05-23T14:57:36;3.97;;;3.78;;
16792;SDS011;8513;42.662;23.350;2023-05-23T15:00:02;3.40;;;3.10;;
16792;SDS011;8513;42.662;23.350;2023-05-23T15:02:29;3.67;;;3.47;;
16792;SDS011;8513;42.662;23.350;2023-05-23T15:04:56;3.45;;;3.25;;
16792;SDS011;8513;42.662;23.350;2023-05-23T15:07:21;3.38;;;3.10;;
16792;SDS011;8513;42.662;23.350;2023-05-23T15:09:47;3.85;;;2.95;;
16792;SDS011;8513;42.662;23.350;2023-05-23T15:12:12;4.10;;;3.90;;